Pansey, Alabama
Current Conditions -  °F | °C
As of 5:53 AM on Thursday 23 Oct 2014 (Local Time) from KDHN Reporting Station
Clear Clear  
Wind Chill: 39°   Ceiling: Unl
Heat Index: 42°   Visibility: 10mi
Dew Point: 40°   Wind: 5mph
Humidity: 92%   Direction: 40°NE
Pressure: 30.11"   Gusts: NA
Location:  31.15°N, 85.18°W
Report Text: KDHN 231053Z 04004KT 10SM CLR 06/04 A3011 RMK AO2 SLP195 T00560044
Loading
Personal Weather Stations






























Interactive Weather Map New forecast layout! Learn more

10-Day Weather Forecast

Advertisements
Track Severe Weather on mobile